createdAt,value
2018-05-29T00:01:26.402Z,77.81
2018-05-29T00:03:54.758Z,77.42
2018-05-29T00:06:23.198Z,77.71
2018-05-29T00:08:52.277Z,78.41
2018-05-29T00:11:20.744Z,78.48
2018-05-29T00:13:50.097Z,79.15
2018-05-29T00:16:18.866Z,78.88
2018-05-29T00:18:47.214Z,79.67
2018-05-29T00:21:15.547Z,79.68
2018-05-29T00:23:44.783Z,79.37
2018-05-29T00:26:13.250Z,78.99
2018-05-29T00:28:41.558Z,78.80
2018-05-29T00:31:10.973Z,78.83
2018-05-29T00:33:39.296Z,79.25
2018-05-29T00:36:07.650Z,79.35
2018-05-29T00:38:36.027Z,79.21
2018-05-29T00:41:04.445Z,79.35
2018-05-29T00:43:32.784Z,80.26
2018-05-29T00:46:01.151Z,80.43
2018-05-29T00:48:29.466Z,80.33
2018-05-29T00:50:57.804Z,79.97
2018-05-29T00:53:26.478Z,79.60
2018-05-29T00:55:54.807Z,78.96
2018-05-29T00:58:23.129Z,78.92
2018-05-29T01:00:51.533Z,79.09
2018-05-29T01:03:19.874Z,79.04
2018-05-29T01:05:48.249Z,79.00
2018-05-29T01:08:17.159Z,78.99
2018-05-29T01:10:45.635Z,79.07
2018-05-29T01:13:14.000Z,79.13
2018-05-29T01:15:43.141Z,79.29
2018-05-29T01:18:11.473Z,79.50
2018-05-29T01:20:39.777Z,79.61
2018-05-29T01:23:08.385Z,79.30
2018-05-29T01:25:36.717Z,79.39
2018-05-29T01:28:05.047Z,78.75
2018-05-29T01:30:33.576Z,79.14
2018-05-29T01:33:01.959Z,79.23
2018-05-29T01:35:30.363Z,78.50
2018-05-29T01:37:58.697Z,78.11
2018-05-29T01:40:27.021Z,77.89
2018-05-29T01:42:55.396Z,77.47
2018-05-29T01:45:23.749Z,77.16
2018-05-29T01:47:52.098Z,77.03
2018-05-29T01:50:20.407Z,76.97
2018-05-29T01:52:49.106Z,76.81
2018-05-29T01:55:17.460Z,76.71
2018-05-29T01:57:45.819Z,76.58
2018-05-29T02:00:14.476Z,76.59
2018-05-29T02:02:42.817Z,76.70
2018-05-29T02:05:11.113Z,76.62
2018-05-29T02:07:39.550Z,76.63
2018-05-29T02:10:07.914Z,76.47
2018-05-29T02:12:36.225Z,76.38
2018-05-29T02:15:04.704Z,76.16
2018-05-29T02:17:33.028Z,76.00
2018-05-29T02:20:01.341Z,75.84
2018-05-29T02:22:29.707Z,75.53
2018-05-29T02:24:58.010Z,75.60
2018-05-29T02:27:26.342Z,75.58
2018-05-29T02:29:54.741Z,76.08
2018-05-29T02:32:23.044Z,76.40
2018-05-29T02:34:51.541Z,76.47
2018-05-29T02:37:19.910Z,76.72
2018-05-29T02:39:48.261Z,76.86
2018-05-29T02:42:16.610Z,77.83
2018-05-29T02:44:44.963Z,77.43
2018-05-29T02:47:13.314Z,77.74
2018-05-29T02:49:41.896Z,77.82
2018-05-29T02:52:10.236Z,78.00
2018-05-29T02:54:38.550Z,78.03
2018-05-29T02:57:06.910Z,78.13
2018-05-29T02:59:36.209Z,78.23
2018-05-29T03:02:04.567Z,78.18
2018-05-29T03:04:32.955Z,78.01
2018-05-29T03:07:02.089Z,77.77
2018-05-29T03:09:30.417Z,77.48
2018-05-29T03:11:58.733Z,77.22
2018-05-29T03:14:27.277Z,77.12
2018-05-29T03:16:55.598Z,76.89
2018-05-29T03:19:23.972Z,76.69
2018-05-29T03:21:52.649Z,76.33
2018-05-29T03:24:20.988Z,75.81
2018-05-29T03:26:49.318Z,75.77
2018-05-29T03:29:18.293Z,75.64
2018-05-29T03:31:46.637Z,74.87
2018-05-29T03:34:15.181Z,74.24
2018-05-29T03:36:44.163Z,74.01
2018-05-29T03:39:12.540Z,74.15
2018-05-29T03:41:40.853Z,74.72
2018-05-29T03:44:09.193Z,75.23
2018-05-29T03:46:37.504Z,75.55
2018-05-29T03:49:05.839Z,76.04
2018-05-29T03:51:34.985Z,76.54
2018-05-29T03:54:03.310Z,76.71
2018-05-29T03:56:31.641Z,76.89
2018-05-29T03:59:00.379Z,76.81
2018-05-29T04:01:28.693Z,76.92
2018-05-29T04:03:57.031Z,76.33
2018-05-29T04:06:25.427Z,76.02
2018-05-29T04:08:53.762Z,76.14
2018-05-29T04:11:22.168Z,76.20
2018-05-29T04:13:50.617Z,76.85
2018-05-29T04:16:18.945Z,76.04
2018-05-29T04:18:47.378Z,75.63
2018-05-29T04:21:15.893Z,75.89
2018-05-29T04:23:44.205Z,75.55
2018-05-29T04:26:12.606Z,75.45
2018-05-29T04:28:40.949Z,75.78
2018-05-29T04:31:09.297Z,76.17
2018-05-29T04:33:37.633Z,76.31
2018-05-29T04:36:06.140Z,76.25
2018-05-29T04:38:34.466Z,76.59
2018-05-29T04:41:02.790Z,76.68
2018-05-29T04:43:32.221Z,76.56
2018-05-29T04:46:00.639Z,76.20
2018-05-29T04:48:28.964Z,76.14
2018-05-29T04:50:58.221Z,75.95
2018-05-29T04:53:26.549Z,75.97
2018-05-29T04:55:54.880Z,75.83
2018-05-29T04:58:23.725Z,76.05
2018-05-29T05:00:52.096Z,75.95
2018-05-29T05:03:20.456Z,75.61
2018-05-29T05:05:49.681Z,75.43
2018-05-29T05:08:18.107Z,75.12
2018-05-29T05:10:46.499Z,75.14
2018-05-29T05:13:15.096Z,74.99
2018-05-29T05:15:43.442Z,74.89
2018-05-29T05:18:11.747Z,74.77
2018-05-29T05:20:40.872Z,74.54
2018-05-29T05:23:09.206Z,74.38
2018-05-29T05:25:37.549Z,74.33
2018-05-29T05:28:06.423Z,73.92
2018-05-29T05:30:34.755Z,74.05
2018-05-29T05:33:03.062Z,74.01
2018-05-29T05:35:31.776Z,74.01
2018-05-29T05:38:00.277Z,74.15
2018-05-29T05:40:28.590Z,73.96
2018-05-29T05:42:56.932Z,73.94
2018-05-29T05:45:25.262Z,73.62
2018-05-29T05:47:53.609Z,73.68
2018-05-29T05:50:22.009Z,73.55
2018-05-29T05:52:50.447Z,73.58
2018-05-29T05:55:18.746Z,73.18
2018-05-29T05:57:47.312Z,73.29
2018-05-29T06:00:15.789Z,73.00
2018-05-29T06:02:44.194Z,72.74
2018-05-29T06:05:12.615Z,73.02
2018-05-29T06:07:40.877Z,73.03
2018-05-29T06:10:09.203Z,72.45
2018-05-29T06:12:38.017Z,71.92
2018-05-29T06:15:06.432Z,72.15
2018-05-29T06:17:34.748Z,72.03
2018-05-29T06:20:03.913Z,71.84
2018-05-29T06:22:32.237Z,71.51
2018-05-29T06:25:00.570Z,71.45
2018-05-29T06:27:28.909Z,71.12
2018-05-29T06:29:57.247Z,71.27
2018-05-29T06:32:25.547Z,71.08
2018-05-29T06:34:54.054Z,71.00
2018-05-29T06:37:22.386Z,70.93
2018-05-29T06:39:50.757Z,70.74
2018-05-29T06:42:19.388Z,70.50
2018-05-29T06:44:47.804Z,70.27
2018-05-29T06:47:16.076Z,69.66
2018-05-29T06:49:44.545Z,69.55
2018-05-29T06:52:13.092Z,69.48
2018-05-29T06:54:41.379Z,68.55
2018-05-29T06:57:09.720Z,67.98
2018-05-29T06:59:38.027Z,68.26
2018-05-29T07:02:06.352Z,67.94
2018-05-29T07:04:34.684Z,67.55
2018-05-29T07:07:03.012Z,67.33
2018-05-29T07:09:31.311Z,67.24
2018-05-29T07:12:00.921Z,66.71
2018-05-29T07:14:29.259Z,67.23
2018-05-29T07:16:57.561Z,67.00
2018-05-29T07:19:27.692Z,67.28
2018-05-29T07:21:56.022Z,67.04
2018-05-29T07:24:24.358Z,66.60
2018-05-29T07:26:53.873Z,65.64
2018-05-29T07:29:22.230Z,66.08
2018-05-29T07:31:50.590Z,67.01
2018-05-29T07:34:19.109Z,66.50
2018-05-29T07:36:47.498Z,66.65
2018-05-29T07:39:15.954Z,65.35
2018-05-29T07:41:45.427Z,64.38
2018-05-29T07:44:13.953Z,64.27
2018-05-29T07:46:42.483Z,64.42
2018-05-29T07:49:10.957Z,65.41
2018-05-29T07:51:39.363Z,64.80
2018-05-29T07:54:07.683Z,64.76
2018-05-29T07:56:36.336Z,64.26
2018-05-29T07:59:04.675Z,64.02
2018-05-29T08:01:33.094Z,63.82
2018-05-29T08:04:02.309Z,63.25
2018-05-29T08:06:30.658Z,62.82
2018-05-29T08:08:58.962Z,62.74
2018-05-29T08:11:27.387Z,62.40
2018-05-29T08:13:55.709Z,62.52
2018-05-29T08:16:24.022Z,63.42
2018-05-29T08:18:52.370Z,62.54
2018-05-29T08:21:20.724Z,62.19
2018-05-29T08:23:49.043Z,62.19
2018-05-29T08:26:17.394Z,61.92
2018-05-29T08:28:45.708Z,61.73
2018-05-29T08:31:14.058Z,62.94
2018-05-29T08:33:42.400Z,62.33
2018-05-29T08:36:10.712Z,62.13
2018-05-29T08:38:39.092Z,61.81
2018-05-29T08:41:07.477Z,62.29
2018-05-29T08:43:35.776Z,62.57
2018-05-29T08:46:04.167Z,61.51
2018-05-29T08:48:32.808Z,61.59
2018-05-29T08:51:01.121Z,61.54
2018-05-29T08:53:29.441Z,61.77
2018-05-29T08:55:58.233Z,60.95
2018-05-29T08:58:26.590Z,60.67
2018-05-29T09:00:54.934Z,60.32
2018-05-29T09:03:24.758Z,60.92
2018-05-29T09:05:53.120Z,61.51
2018-05-29T09:08:21.484Z,62.24
2018-05-29T09:10:49.870Z,61.06
2018-05-29T09:13:18.240Z,59.88
2018-05-29T09:15:46.610Z,59.93
2018-05-29T09:18:15.965Z,59.12
2018-05-29T09:20:44.298Z,60.00
2018-05-29T09:23:13.549Z,60.48
2018-05-29T09:25:41.897Z,59.20
2018-05-29T09:28:10.197Z,60.16
2018-05-29T09:30:38.522Z,62.30
2018-05-29T09:33:07.261Z,62.47
2018-05-29T09:35:35.612Z,62.13
2018-05-29T09:38:03.889Z,62.43
2018-05-29T09:40:32.784Z,60.79
2018-05-29T09:43:01.100Z,59.64
2018-05-29T09:45:29.534Z,60.58
2018-05-29T09:47:57.851Z,57.92
2018-05-29T09:50:26.164Z,55.81
2018-05-29T09:52:54.541Z,53.97
2018-05-29T09:55:22.906Z,53.85
2018-05-29T09:57:51.254Z,53.51
2018-05-29T10:00:25.625Z,53.70
2018-05-29T10:02:53.953Z,53.17
2018-05-29T10:05:22.326Z,52.59
2018-05-29T10:07:50.868Z,50.74
2018-05-29T10:10:20.088Z,47.38
2018-05-29T10:12:48.456Z,47.16
2018-05-29T10:15:17.511Z,46.84
2018-05-29T10:17:45.859Z,47.13
2018-05-29T10:20:14.234Z,45.91
2018-05-29T10:22:43.300Z,44.56
2018-05-29T10:25:11.616Z,45.15
2018-05-29T10:27:39.948Z,44.01
2018-05-29T10:30:09.289Z,45.67
2018-05-29T10:32:37.587Z,47.77
2018-05-29T10:35:05.930Z,46.54
2018-05-29T10:37:34.318Z,46.20
2018-05-29T10:40:02.644Z,46.51
2018-05-29T10:42:30.952Z,44.77
2018-05-29T10:44:59.295Z,45.59
2018-05-29T10:47:27.601Z,45.67
2018-05-29T10:49:55.969Z,42.99
2018-05-29T10:52:24.595Z,43.44
2018-05-29T10:54:52.885Z,47.55
2018-05-29T10:57:21.230Z,47.23
2018-05-29T10:59:49.574Z,47.22
2018-05-29T11:02:17.923Z,46.97
2018-05-29T11:04:46.306Z,46.64
2018-05-29T11:07:14.765Z,47.66
2018-05-29T11:09:43.131Z,48.66
2018-05-29T11:12:11.459Z,48.35
2018-05-29T11:14:39.813Z,49.16
2018-05-29T11:17:08.173Z,48.00
2018-05-29T11:19:36.499Z,45.03
2018-05-29T11:22:05.469Z,43.39
2018-05-29T11:24:33.796Z,42.58
2018-05-29T11:27:02.119Z,42.28
2018-05-29T11:29:30.461Z,41.13
2018-05-29T11:31:58.801Z,41.83
2018-05-29T11:34:27.105Z,40.31
2018-05-29T11:36:55.465Z,40.80
2018-05-29T11:39:23.832Z,41.70
2018-05-29T11:41:52.245Z,42.92
2018-05-29T11:44:21.413Z,43.90
2018-05-29T11:46:49.733Z,42.82
2018-05-29T11:49:18.068Z,41.76
2018-05-29T11:51:46.501Z,40.56
2018-05-29T11:54:14.936Z,41.95
2018-05-29T11:56:43.301Z,40.24
2018-05-29T11:59:12.527Z,41.00
2018-05-29T12:01:40.922Z,39.78
2018-05-29T12:04:09.238Z,40.00
2018-05-29T12:06:39.100Z,38.88
2018-05-29T12:09:07.429Z,36.71
2018-05-29T12:11:35.730Z,36.59
2018-05-29T12:14:04.060Z,37.07
2018-05-29T12:16:32.357Z,36.03
2018-05-29T12:19:00.671Z,35.89
2018-05-29T12:21:29.303Z,36.24
2018-05-29T12:23:57.622Z,36.75
2018-05-29T12:26:25.958Z,37.82
2018-05-29T12:28:54.497Z,37.10
2018-05-29T12:31:22.897Z,36.07
2018-05-29T12:33:51.312Z,35.20
2018-05-29T12:36:19.713Z,34.71
2018-05-29T12:38:48.042Z,34.81
2018-05-29T12:41:16.396Z,35.50
2018-05-29T12:43:44.761Z,36.65
2018-05-29T12:46:13.250Z,35.12
2018-05-29T12:48:41.465Z,34.66
2018-05-29T12:51:09.805Z,34.05
2018-05-29T12:53:38.126Z,35.54
2018-05-29T12:56:06.444Z,35.40
2018-05-29T12:58:35.305Z,34.47
2018-05-29T13:01:03.631Z,34.10
2018-05-29T13:03:31.957Z,34.39
2018-05-29T13:06:00.370Z,34.96
2018-05-29T13:08:28.742Z,35.24
2018-05-29T13:10:57.059Z,34.59
2018-05-29T13:13:25.441Z,35.53
2018-05-29T13:15:53.794Z,35.50
2018-05-29T13:18:22.119Z,34.34
2018-05-29T13:20:51.028Z,34.97
2018-05-29T13:23:19.357Z,34.10
2018-05-29T13:25:47.847Z,33.69
2018-05-29T13:28:16.623Z,32.91
2018-05-29T13:30:45.058Z,34.39
2018-05-29T13:33:13.382Z,34.37
2018-05-29T13:35:41.727Z,33.66
2018-05-29T13:38:10.027Z,32.17
2018-05-29T13:40:38.349Z,31.65
2018-05-29T13:43:07.174Z,31.72
2018-05-29T13:45:35.659Z,32.71
2018-05-29T13:48:03.977Z,33.88
2018-05-29T13:50:32.314Z,34.24
2018-05-29T13:53:00.610Z,34.40
2018-05-29T13:55:29.635Z,32.87
2018-05-29T13:57:58.065Z,33.20
2018-05-29T14:00:26.373Z,32.21
2018-05-29T14:02:54.693Z,31.82
2018-05-29T14:05:23.301Z,32.64
2018-05-29T14:07:51.698Z,32.28
2018-05-29T14:10:20.017Z,32.75
2018-05-29T14:12:48.362Z,33.59
2018-05-29T14:15:18.311Z,33.01
2018-05-29T14:17:46.894Z,34.17
2018-05-29T14:20:16.281Z,33.16
2018-05-29T14:22:44.665Z,33.33
2018-05-29T14:25:13.011Z,32.73
2018-05-29T14:27:41.383Z,33.35
2018-05-29T14:30:09.698Z,33.88
2018-05-29T14:32:38.982Z,33.54
2018-05-29T14:35:07.331Z,32.57
2018-05-29T14:37:35.631Z,33.17
2018-05-29T14:40:03.947Z,33.48
2018-05-29T14:42:32.348Z,32.69
2018-05-29T14:45:00.643Z,33.20
2018-05-29T14:47:28.938Z,32.26
2018-05-29T14:49:57.285Z,32.31
2018-05-29T14:52:25.627Z,31.91
2018-05-29T14:54:53.910Z,30.65
2018-05-29T14:57:22.864Z,31.48
2018-05-29T14:59:51.174Z,31.18
2018-05-29T15:02:19.529Z,31.82
2018-05-29T15:04:47.978Z,32.28
2018-05-29T15:07:16.306Z,32.83
2018-05-29T15:09:44.672Z,32.72
2018-05-29T15:12:14.528Z,33.66
2018-05-29T15:14:43.702Z,34.72
2018-05-29T15:17:12.028Z,35.10
2018-05-29T15:19:41.447Z,35.58
2018-05-29T15:22:09.782Z,35.12
2018-05-29T15:24:38.137Z,34.77
2018-05-29T15:27:06.649Z,34.46
2018-05-29T15:29:34.956Z,34.38
2018-05-29T15:32:03.265Z,34.33
2018-05-29T15:34:31.599Z,34.31
2018-05-29T15:36:59.897Z,33.84
2018-05-29T15:39:28.206Z,33.66
2018-05-29T15:41:56.562Z,34.19
2018-05-29T15:44:24.884Z,33.28
2018-05-29T15:46:53.187Z,33.95
2018-05-29T15:49:21.567Z,34.36
2018-05-29T15:51:49.901Z,34.39
2018-05-29T15:54:18.312Z,34.08
2018-05-29T15:56:46.830Z,34.19
2018-05-29T15:59:15.209Z,34.39
2018-05-29T16:01:43.698Z,34.18
2018-05-29T16:04:12.683Z,33.74
2018-05-29T16:06:40.998Z,34.82
2018-05-29T16:09:09.296Z,34.93
2018-05-29T16:11:38.050Z,35.89
2018-05-29T16:14:06.990Z,35.04
2018-05-29T16:16:35.289Z,34.80
2018-05-29T16:19:03.768Z,35.45
2018-05-29T16:21:34.444Z,36.17
2018-05-29T16:24:02.906Z,35.02
2018-05-29T16:26:31.329Z,35.74
2018-05-29T16:28:59.680Z,35.36
2018-05-29T16:31:28.038Z,35.79
2018-05-29T16:33:56.396Z,35.79
2018-05-29T16:36:24.716Z,35.06
2018-05-29T16:38:53.037Z,34.66
2018-05-29T16:41:22.248Z,35.06
2018-05-29T16:43:50.682Z,35.29
2018-05-29T16:46:19.021Z,35.06
2018-05-29T16:48:47.401Z,35.24
2018-05-29T16:51:15.777Z,35.06
2018-05-29T16:53:44.506Z,35.19
2018-05-29T16:56:14.167Z,36.31
2018-05-29T16:58:42.472Z,37.42
2018-05-29T17:01:10.921Z,37.79
2018-05-29T17:03:39.258Z,39.47
2018-05-29T17:06:07.607Z,39.90
2018-05-29T17:08:35.953Z,39.52
2018-05-29T17:11:04.321Z,39.89
2018-05-29T17:13:33.622Z,40.80
2018-05-29T17:16:02.468Z,41.66
2018-05-29T17:18:30.868Z,41.88
2018-05-29T17:20:59.172Z,42.37
2018-05-29T17:23:27.517Z,43.27
2018-05-29T17:25:55.878Z,43.68
2018-05-29T17:28:24.238Z,44.41
2018-05-29T17:30:52.601Z,44.61
2018-05-29T17:33:20.968Z,45.08
2018-05-29T17:35:49.323Z,45.19
2018-05-29T17:38:17.706Z,45.14
2018-05-29T17:40:46.085Z,45.27
2018-05-29T17:43:14.423Z,45.65
2018-05-29T17:45:42.759Z,44.42
2018-05-29T17:48:11.167Z,43.28
2018-05-29T17:50:39.512Z,42.27
2018-05-29T17:53:07.821Z,42.20
2018-05-29T17:55:36.223Z,41.22
2018-05-29T17:58:04.541Z,40.95
2018-05-29T18:00:32.842Z,40.33
2018-05-29T18:03:01.265Z,40.93
2018-05-29T18:05:29.611Z,40.56
2018-05-29T18:07:57.958Z,40.64
2018-05-29T18:10:26.289Z,40.76
2018-05-29T18:12:54.619Z,41.48
2018-05-29T18:15:22.977Z,41.27
2018-05-29T18:17:51.458Z,41.73
2018-05-29T18:20:19.780Z,41.65
2018-05-29T18:22:48.256Z,41.89
2018-05-29T18:25:16.735Z,42.01
2018-05-29T18:27:45.247Z,42.58
2018-05-29T18:30:13.639Z,42.58
2018-05-29T18:32:42.075Z,42.88
2018-05-29T18:35:10.366Z,43.08
2018-05-29T18:37:38.685Z,43.61
2018-05-29T18:40:07.823Z,43.58
2018-05-29T18:42:36.140Z,44.22
2018-05-29T18:45:04.506Z,45.39
2018-05-29T18:47:33.724Z,45.65
2018-05-29T18:50:02.058Z,46.10
2018-05-29T18:52:30.380Z,45.95
2018-05-29T18:54:59.189Z,46.87
2018-05-29T18:57:27.486Z,47.47
2018-05-29T18:59:55.790Z,48.41
2018-05-29T19:02:24.965Z,49.19
2018-05-29T19:04:53.293Z,49.47
2018-05-29T19:07:21.888Z,49.51
2018-05-29T19:09:50.872Z,49.69
2018-05-29T19:12:19.508Z,49.66
2018-05-29T19:14:48.550Z,50.16
2018-05-29T19:17:17.700Z,50.72
2018-05-29T19:19:46.094Z,50.56
2018-05-29T19:22:14.469Z,50.76
2018-05-29T19:24:42.953Z,50.98
2018-05-29T19:27:11.269Z,51.36
2018-05-29T19:29:40.538Z,51.19
2018-05-29T19:32:08.890Z,51.33
2018-05-29T19:34:37.199Z,51.78
2018-05-29T19:37:05.522Z,51.34
2018-05-29T19:39:33.850Z,51.65
2018-05-29T19:42:02.199Z,51.32
2018-05-29T19:44:30.843Z,51.62
2018-05-29T19:46:59.185Z,51.61
2018-05-29T19:49:27.522Z,51.60
2018-05-29T19:51:55.880Z,51.31
2018-05-29T19:54:24.307Z,51.35
2018-05-29T19:56:52.891Z,51.13
2018-05-29T19:59:21.237Z,50.61
2018-05-29T20:01:49.839Z,50.77
2018-05-29T20:04:18.183Z,50.69
2018-05-29T20:06:46.654Z,50.22
2018-05-29T20:09:15.107Z,50.47
2018-05-29T20:11:43.489Z,50.39
2018-05-29T20:14:11.846Z,50.03
2018-05-29T20:16:41.082Z,50.11
2018-05-29T20:19:09.399Z,50.12
2018-05-29T20:21:37.761Z,49.88
2018-05-29T20:24:06.641Z,49.97
2018-05-29T20:26:34.961Z,50.08
2018-05-29T20:29:03.252Z,49.74
2018-05-29T20:31:32.270Z,50.03
2018-05-29T20:34:00.573Z,49.86
2018-05-29T20:36:28.901Z,50.16
2018-05-29T20:38:57.251Z,50.43
2018-05-29T20:41:25.582Z,50.61
2018-05-29T20:43:53.960Z,50.91
2018-05-29T20:46:24.045Z,50.93
2018-05-29T20:48:52.474Z,50.97
2018-05-29T20:51:20.955Z,51.09
2018-05-29T20:53:49.350Z,51.54
2018-05-29T20:56:17.905Z,51.27
2018-05-29T20:58:46.387Z,51.66
2018-05-29T21:01:14.839Z,51.80
2018-05-29T21:03:43.280Z,52.11
2018-05-29T21:06:11.627Z,51.92
2018-05-29T21:08:40.765Z,52.05
2018-05-29T21:11:09.070Z,52.09
2018-05-29T21:13:37.398Z,52.63
2018-05-29T21:16:06.457Z,52.64
2018-05-29T21:18:34.807Z,52.56
2018-05-29T21:21:03.156Z,52.59
2018-05-29T21:23:31.702Z,52.83
2018-05-29T21:26:00.039Z,52.85
2018-05-29T21:28:28.347Z,52.80
2018-05-29T21:30:56.686Z,53.18
2018-05-29T21:33:25.019Z,53.34
2018-05-29T21:35:53.373Z,53.67
2018-05-29T21:38:21.750Z,53.52
2018-05-29T21:40:50.167Z,53.91
2018-05-29T21:43:18.565Z,53.80
2018-05-29T21:45:47.073Z,54.07
2018-05-29T21:48:15.690Z,54.36
2018-05-29T21:50:44.358Z,54.69
2018-05-29T21:53:13.197Z,55.12
2018-05-29T21:55:41.571Z,54.82
2018-05-29T21:58:09.890Z,55.30
2018-05-29T22:00:38.829Z,55.53
2018-05-29T22:03:07.216Z,55.72
2018-05-29T22:05:35.554Z,55.73
2018-05-29T22:08:04.387Z,55.85
2018-05-29T22:10:32.708Z,55.97
2018-05-29T22:13:01.029Z,56.27
2018-05-29T22:15:29.405Z,56.71
2018-05-29T22:17:57.712Z,57.17
2018-05-29T22:20:26.130Z,57.01
2018-05-29T22:22:54.961Z,56.94
2018-05-29T22:25:23.449Z,56.77
2018-05-29T22:27:51.881Z,56.98
2018-05-29T22:30:20.296Z,56.99
2018-05-29T22:32:48.592Z,57.10
2018-05-29T22:35:17.067Z,57.42
2018-05-29T22:37:45.837Z,57.35
2018-05-29T22:40:14.298Z,57.34
2018-05-29T22:42:42.670Z,57.58
2018-05-29T22:45:11.520Z,57.62
2018-05-29T22:47:39.839Z,57.75
2018-05-29T22:50:08.148Z,57.76
2018-05-29T22:52:36.591Z,58.27
2018-05-29T22:55:04.989Z,58.47
2018-05-29T22:57:33.363Z,58.43
2018-05-29T23:00:01.777Z,58.29
2018-05-29T23:02:30.069Z,58.23
2018-05-29T23:04:58.400Z,58.60
2018-05-29T23:07:27.664Z,58.89
2018-05-29T23:09:55.997Z,58.96
2018-05-29T23:12:24.317Z,58.95
2018-05-29T23:14:53.480Z,59.23
2018-05-29T23:17:22.561Z,59.06
2018-05-29T23:19:51.697Z,59.13
2018-05-29T23:22:20.276Z,59.27
2018-05-29T23:24:48.635Z,59.48
2018-05-29T23:27:17.035Z,59.65
2018-05-29T23:29:46.501Z,60.01
2018-05-29T23:32:15.296Z,60.34
2018-05-29T23:34:43.705Z,60.54
2018-05-29T23:37:12.059Z,60.73
2018-05-29T23:39:40.391Z,60.90
2018-05-29T23:42:08.702Z,61.22
2018-05-29T23:44:37.045Z,61.37
2018-05-29T23:47:05.362Z,61.89
2018-05-29T23:49:33.680Z,62.20
2018-05-29T23:52:02.004Z,62.54
2018-05-29T23:54:30.376Z,62.90
2018-05-29T23:56:58.681Z,63.30
2018-05-29T23:59:28.187Z,63.25
